Producten

Bel ons op 035-5771201|info@vliegschool-hilversum.nl

WEER

WEER 2017-08-15T13:29:11+00:00
Download PDF

Weerbulletin

17/08/2017 10.00 uur LT
ZCZC
FBNL50 EHDB 170752    
WEERBULLETIN VOOR DE LUCHTVAART
.
GELDIG 170900/171500 UTC
.
SITUATIE: AAN DE ZUIDOOSTFLANK VAN EEN LAGEDRUKGEBIED TEN NOORDWESTEN
VAN SCHOTLAND VOERT EEN STEVIGE ZUIDWESTELIJKE STROMING VOCHTIGE
LUCHT AAN. EEN FRONTAAL SYSTEEM BEWEEGT OOSTWAARTS OVER HET LAND. DE
AANGEVOERDE LUCHT WORDT HALVERWEGE DE PERIODE ONSTABIEL TOT 5000 VT,
LOKAAL TOT BOVEN FL100.
.
SIGNIFICANT WEER: BIJ DE FRONTALE ZONE LICHTE, LOKAAL MATIGE REGEN.
LATER VAN HET WESTEN UIT OP STEEDS MEER PLAATSEN MATIGE REGEN EN
MOGELIJK EEN GEISOLEERDE (INGEBEDDE) REGENBUI. LANGS KUST EN BOVEN
HET IJSSELMEER MATIGE TURBULENTIE.
.
WIND: ZUIDELIJK, GELEIDELIJK RUIMEND NAAR ZUIDWEST. IN HET
NOORDOOSTEN AANVANKELIJK ZUIDOOST 8-13 KN, LANGS DE KUST EN BOVEN HET
IJSSELMEER 13-18 KN, LOKAAL 18-22 KN. LANGS DE WESTKUST UITSCHIETERS
TOT CIRCA 30 KN.
.
BEWOLKING: BKN/OVC AS/NS 5000-7000 VT, VAN HET WESTEN UIT DALEND NAAR
CIRCA 1500 VT, LOKAAL NAAR 1000 VT. IN HET WESTELIJK KUSTGEBIED BKN
ST 500-1000 VT. IN EEN BUI FEW CB ROND 1500 VT. TOPPEN BOVEN FL100.
AAN HET EINDE VAN DE PERIODE BKN, IN HET WESTEN SCT CU/SC 1500-3000
VT, TOPPEN 4000 VT.
.
ZICHT: MEER DAN 10 KM, MATIGE REGEN 5-8 KM, LATER VAN HET WESTEN UIT
LOKAAL 3-5 KM.
.
NULGRADEN NIVEAU: BOVEN FL100.
.
HOOGTEWINDEN EN TEMPERATUREN:
       09 UTC:       15 UTC:
0500VT 200/15-20 +17 220/15-20 +18
1500VT 220/25-30 +17 230/20-25 +16
3000VT 210/25-35 +15 240/25-35 +14
FL 050 210/25-35 +10 260/35-40 +12
FL 100 220/30-40 +02 260/40-45 +02
HOOGSTE WINDSNELHEID IN HET W. OM 15 UTC IN HET OOSTEN.
.
THERMIEK: IN HET OOSTEN VOOR DE FRONTALE ZONE UIT ZWAK/MATIG MAAR IN
TOENEMENDE MATE VERZWAKT DOOR AFSCHERMING VAN BEWOLKING.
.
MAX. TEMPERATUUR: ROND 22 GRADEN CELSIUS.
.
VOORUITZICHTEN VOOR DE PERIODE VAN 171500/172100: EEN
NOORDOOST-ZUIDWEST GEORIENTEERD KOUFRONT LIGT BOVEN DE WESTKUST,
TREKT OOSTWAARTS EN VERLAAT HET OOSTEN AAN HET EINDE VAN DE PERIODE.
TEN WESTEN VAN HET FRONT STERK VERBETERENDE VFR-CONDITIES.
.
DAGLICHTPERIODE: 04.12 TOT 19.14 UTC.=
NNNN

METAR

17/08/2017 11.45 uur LT
ZCZC
SA170925 EHKD     DE KOOY/DE KOOY   NLD   1 m.
METAR EHKD 170925Z AUTO 19010KT 8000 -RA FEW015CB SCT039 18/16 Q1012
RERA REDZ
BLU 20012KT 9999 SCT040 BKN100 TEMPO 4500 RADZ=

ZCZC
SA170925 EHFD     F3-FB-1   NLD   50 m.
METAR EHFD 170925Z AUTO 17028KT 7000 -RA FEW017/// SCT021///
BKN025/// 17/15 Q1009=

ZCZC
SA170925 EHAM     AMSTERDAM/SCHIPHOL   NLD   -3 m.
METAR EHAM 170925Z 22011KT 180V250 6000 -DZRA FEW009 SCT015 BKN035
17/16 Q1013 BECMG BKN012=

ZCZC
SA170925 EHVL     VLIELAND   NLD   10 m.
METAR EHVL 170925Z AUTO 20015KT 9999 DZ FEW015CB OVC048 17/16 Q1012 BLU=

ZCZC
SA170925 EHJR     K13-A   NLD   37 m.
METAR EHJR 170925Z NIL=

ZCZC
SA170925 EHLW     LEEUWARDEN/LEEUWARDEN   NLD   1 m.
METAR EHLW 170925Z AUTO 19008KT 140V220 7000 -SHRA SCT015CB BKN040
BKN047 BKN051 18/17 Q1012 REDZ
WHT 18008KT 9999 BKN045 TEMPO 6000 SCT025 BKN030=

ZCZC
SA170925 EHDL     ARNHEM/DEELEN   NLD   48 m.
METAR EHDL 170925Z AUTO 18007KT 120V230 9999 DZ FEW062 SCT072 BKN097
19/16 Q1014 BLU=

ZCZC
SA170925 EHGG     GRONINGEN/EELDE   NLD   5 m.
METAR EHGG 170925Z AUTO 17008KT 140V210 9999 DZ FEW015CB 19/15 Q1013
TEMPO 7000 RA=

ZCZC
SA170925 EHSC     LICHTEILAND GOEREE   NLD   22 m.
METAR EHSC 170925Z NIL=

ZCZC
SA170925 EHSA     EURO PLATFORM   NLD   19 m.
METAR EHSA 170925Z NIL=

ZCZC
SA170925 EHWO     WOENSDRECHT/WOENSDRECHT   NLD   19 m.
METAR EHWO 170925Z AUTO 22007KT 180V250 8000 SHRA SCT015CB SCT028
BKN039 17/16 Q1014 REDZ
WHT 23010KT 6000 RADZ SCT018 BKN022 OVC030 TEMPO 3000 SCT010 SCT018
BKN022=

ZCZC
SA170925 EHRD     ROTTERDAM/THE HAGUE AIRPORT   NLD   -5 m.
METAR EHRD 170925Z AUTO 19007KT 160V230 9999 DZ FEW007 SCT010
FEW015CB BKN033 18/17 Q1013 TEMPO 7000=

ZCZC
SA170925 EHGR     GILZE-RIJEN/GILZE-RIJEN   NLD   14 m.
METAR EHGR 170925Z AUTO 19007KT 130V230 9999 DZ SCT037 SCT041 OVC045
19/16 Q1014
BLU 19010KT 9999 -RA SCT040 OVC060 TEMPO 4500 RADZ=

ZCZC
SA170925 EHEH     EINDHOVEN/EINDHOVEN   NLD   22 m.
METAR EHEH 170925Z AUTO 20008KT 170V230 9999 DZ OVC053 21/16 Q1014
BLU 20010KT CAVOK=

ZCZC
SA170925 EHVK     VOLKEL/VOLKEL   NLD   21 m.
METAR EHVK 170925Z AUTO 19006KT 150V230 9999 FEW055 OVC061 20/16
Q1014
BLU 19004KT CAVOK=

ZCZC
SA170925 EHBK     MAASTRICHT/MAASTRICHT-AACHEN   NLD   114 m.
METAR EHBK 170925Z AUTO 20014KT 9999 NSC 21/15 Q1015 NOSIG=

ZCZC
SA170925 EHFZ     F16-A   NLD   43 m.
METAR EHFZ 170925Z AUTO 21021KT 100V250 4500 -SHRA FEW005 SCT020
17/16 Q1010 REDZ=

ZCZC
SA170925 EHKV     K14-FA-1C   NLD   41 m.
METAR EHKV 170925Z AUTO 19023KT 9999 DZ FEW009 SCT016 BKN023 18/16
Q1010=

ZCZC
SA170925 EHMG     L9-FF-1   NLD   44 m.
METAR EHMG 170925Z AUTO 21023KT 9000 -RA FEW008 SCT010 BKN018 18/16
Q1011 RERA REDZ=

ZCZC
SA170925 EHMA     AWG-1   NLD   40 m.
METAR EHMA 170925Z AUTO 21019KT 170V250 2200 -SHRA BKN015CB SCT034
OVC043 18/15 Q1012 REDZ=

ZCZC
SA170925 EHDV     D15-FA-1   NLD   42 m.
METAR EHDV 170925Z AUTO 18022KT //// // ///////// 16/15 Q1008 RE//=

ZCZC
SA170925 EHAK     A12-CPP   NLD   48 m.
METAR EHAK 170925Z AUTO 16023KT 1200 SHRA FEW004/// BKN006///
BKN008/// 17/15 Q1008 REDZ=

ZCZC
SA170925 EHQE     HOORN-A   NLD   50 m.
METAR EHQE 170925Z AUTO ///27KT //// // ////// 18/15 Q1011 RE//=

ZCZC
SA170925 EHJA     J6-A   NLD   45 m.
METAR EHJA 170925Z AUTO 20021KT 9999 -RA FEW005/// BKN006///
BKN008/// 17/16 Q1009=

ZCZC
SA170925 EHPG     P11-B   NLD   41 m.
METAR EHPG 170925Z AUTO 20025KT 150V260 9999 -RA FEW007 SCT009 BKN013
18/16 Q1011=

ZCZC
SA170925 EHHW     BUITENGAATS/BG-OHVS2      42 m.
METAR EHHW 170925Z AUTO 21014KT 9999 -RADZ ///////// 18/15 Q1012=

ZCZC
SA170925 EHFS     VLISSINGEN AWS   NLD   8 m.
METAR EHFS 170925Z AUTO 20016KT 9999 FEW006/// BKN007/// BKN009///
17/16 Q1013=

TAF

17/08/2017 11.30 uur LT
ZCZC
FT170500 EHAM     AMSTERDAM/SCHIPHOL   NLD   -3 m.
TAF EHAM 170457Z 1706/1812 19012KT 9999 SCT040
    BECMG 1706/1709 7000 RA SCT020 BKN025
    PROB40 TEMPO 1709/1713 5000 RADZ BKN008 BKN012
    BECMG 1713/1715 23015KT 9999 NSW BKN025
    BECMG 1718/1721 21007KT CAVOK
    PROB30 1722/1803 5000 BR BKN008
    BECMG 1803/1805 18005KT 6000 RA SHRA BKN005 SCT030CB
    BECMG 1805/1807 23013KT 9999 NSW SCT012 BKN020
    PROB30 TEMPO 1810/1812 25015G25KT 7000 SHRA SCT020CB=

ZCZC
FT170500 EHBK     MAASTRICHT/MAASTRICHT-AACHEN   NLD   114 m.
TAF EHBK 170459Z 1706/1812 17005KT CAVOK
    BECMG 1708/1710 23011KT
    TEMPO 1713/1721 6000 RA SHRA BKN018 SCT025CB
    TEMPO 1804/1811 6000 RA SHRA BKN018 SCT025CB=

ZCZC
FT170500 EHGG     GRONINGEN/EELDE   NLD   5 m.
TAF EHGG 170459Z 1706/1812 14005KT CAVOK
    BECMG 1709/1711 21015KT 7000 -RA BKN030
    TEMPO 1712/1714 4000 RADZ BKN012
    BECMG 1714/1716 9999 NSW SCT025
    BECMG 1801/1803 19005KT 4000 BR BKN012
    TEMPO 1802/1806 2000 BKN004
    TEMPO 1806/1809 RA SHRA BKN006 BKN015CB
    BECMG 1808/1810 22015KT 9999 NSW SCT025=

ZCZC
FT170500 EHRD     ROTTERDAM/THE HAGUE AIRPORT   NLD   -5 m.
TAF EHRD 170457Z 1706/1812 19012KT 9999 SCT040
    BECMG 1706/1707 7000 RA SCT020 BKN025
    PROB40 TEMPO 1708/1713 5000 RADZ BKN008 BKN012
    BECMG 1713/1715 23015KT 9999 NSW BKN025
    BECMG 1718/1721 21007KT CAVOK
    PROB30 1722/1803 5000 BR BKN008
    BECMG 1803/1805 18005KT 6000 RA SHRA BKN005 SCT030CB
    BECMG 1805/1807 23013KT 9999 NSW SCT012 BKN020
    PROB30 TEMPO 1810/1812 25015G25KT 7000 SHRA SCT020CB=

ZCZC
FT170500 EHEH     EINDHOVEN/EINDHOVEN   NLD   22 m.
TAF COR EHEH 170557Z 1706/1812 VRB02KT CAVOK
    BECMG 1709/1711 22015KT FEW015 BKN030
    PROB40 TEMPO 1715/1719 4500 SHRA RA SCT008 SCT015CB
    BKN020
    BECMG 1720/1722 20005KT
    PROB40 TEMP0 1801/1810 4500 SHRA RA SCT008 SCT015CB
    BKN020=

ZCZC
FC170800 EHVK     VOLKEL/VOLKEL   NLD   21 m.
TAF EHVK 170843Z 1709/1721 20009KT CAVOK
    BECMG 1711/1713 21012KT BKN020
    PROB30 TEMPO 1714/1719 4500 RA SCT010 BKN015=

ZCZC
FC170800 EHLW     LEEUWARDEN/LEEUWARDEN   NLD   1 m.
TAF EHLW 170847Z 1709/1721 17008KT 8000 RADZ SCT030 BKN050
    BECMG 1709/1712 21013G23KT FEW012 SCT020 BKN030
    BECMG 1712/1714 4500 -RADZ SCT012 BKN015
    PROB30 TEMPO 1712/1714 SCT006 BKN012 BKN015
    BECMG 1715/1718 9999 NSW FEW015 SCT020=

ZCZC
FC170800 EHGR     GILZE-RIJEN/GILZE-RIJEN   NLD   14 m.
TAF COR EHGR 170842Z 1709/1721 19010KT 9999 SCT030 OVC040
    BECMG 1710/1713 SCT015 BKN020
    PROB30 TEMPO 1710/1714 3000 RADZ SCT009 BKN012
    PROB30 TEMPO 1716/1718 SCT012 SCT015CB
    BECMG 1719/1721 SCT020=

ZCZC
FC170800 EHWO CCA WOENSDRECHT/WOENSDRECHT   NLD   19 m.
TAF COR EHWO 170913Z 1709/1721 22011KT SCT018 OVC030
    PROB40 TEMPO 1709/1713 22012G22KT 3000 RADZ SCT009 BKN012
    PROB30 TEMPO 1713/1717 SCT012 SCT015CB
    BECMG 1717/1719 SCT020=

ZCZC
FC170900 EHKD     DE KOOY/DE KOOY   NLD   1 m.
TAF EHKD 170844Z 1709/1721 19010KT 9999 FEW015 SCT035 BKN070
    BECMG 1709/1712 21013G23KT FEW012 SCT020 BKN030
    BECMG 1712/1714 4500 -RADZ SCT012 BKN015
    PROB30 TEMPO 1712/1714 SCT006 BKN012 BKN015
    BECMG 1714/1717 9999 NSW FEW015 SCT020=

Disclaimer: Deze tool helpt bij een veilige vluchtuitvoering en de Pilot In Command blijft verantwoordelijk voor gebruik van de originele en meest actuele bronnen. Refresh deze pagina voor het meest actuele weer.